Terminal Aerodrome Forecast
Issued by NWS Sterling, VA

Home | Current Version | Previous Version | Text Only | Print | Product List | Glossary On
Versions: 1 2 3 4 5 6 7 8 9 10 11 12 13
000
FTUS41 KLWX 281743 AAA
TAFCHO
TAF AMD
KCHO 281743Z 2818/2918 14009KT P6SM SCT050
     FM282300 VRB03KT P6SM SCT250
     FM291600 VRB03KT P6SM -SHRA OVC090=

USA.gov is the U.S. government's official web portal to all federal, state and local government web resources and services.